Time,TemperatureF,DewpointF,PressureIn,WindDirection,WindDirectionDegrees,WindSpeedMPH,WindSpeedGustMPH,Humidity,HourlyPrecipIn,Conditions,Clouds,dailyrainin,SoftwareType,DateUTC
2013-11-05 00:23:00,21.0,17.0,30.70,North,0,0.0,0.0,85,0.00,,,0.00,,2013-11-05 05:23:00,
2013-11-05 00:34:00,21.0,17.0,30.70,North,0,0.0,0.0,85,0.00,,,0.00,,2013-11-05 05:34:00,
2013-11-05 00:43:00,21.0,17.0,30.70,North,0,0.0,0.0,85,0.00,,,0.00,,2013-11-05 05:43:00,
2013-11-05 00:54:00,21.0,17.0,30.71,North,0,0.0,0.0,86,0.00,,,0.00,,2013-11-05 05:54:00,
2013-11-05 01:13:00,21.0,18.0,30.70,North,0,0.0,0.0,87,0.00,,,0.00,,2013-11-05 06:13:00,
2013-11-05 01:22:00,20.0,17.0,30.69,North,0,0.0,0.0,87,0.00,,,0.00,,2013-11-05 06:22:00,
2013-11-05 01:42:00,20.0,17.0,30.69,North,0,0.0,0.0,88,0.00,,,0.00,,2013-11-05 06:42:00,
2013-11-05 01:52:00,20.0,17.0,30.70,North,0,0.0,0.0,87,0.00,,,0.00,,2013-11-05 06:52:00,
2013-11-05 02:11:00,21.0,18.0,30.69,North,0,0.0,0.0,88,0.00,,,0.00,,2013-11-05 07:11:00,
2013-11-05 02:22:00,21.0,18.0,30.69,North,0,0.0,0.0,88,0.00,,,0.00,,2013-11-05 07:22:00,
2013-11-05 02:32:00,21.0,18.0,30.69,North,0,0.0,0.0,88,0.00,,,0.00,,2013-11-05 07:32:00,
2013-11-05 02:42:00,21.0,18.0,30.69,North,0,0.0,0.0,88,0.00,,,0.00,,2013-11-05 07:42:00,
2013-11-05 02:52:00,21.0,18.0,30.70,North,0,0.0,0.0,89,0.00,,,0.00,,2013-11-05 07:52:00,
2013-11-05 03:12:00,21.0,18.0,30.70,North,0,0.0,0.0,88,0.00,,,0.00,,2013-11-05 08:12:00,
2013-11-05 03:22:00,21.0,18.0,30.69,North,0,0.0,0.0,89,0.00,,,0.00,,2013-11-05 08:22:00,
2013-11-05 03:42:00,22.0,19.0,30.69,North,0,0.0,0.0,89,0.00,,,0.00,,2013-11-05 08:42:00,
2013-11-05 03:52:00,22.0,19.0,30.69,North,0,0.0,0.0,89,0.00,,,0.00,,2013-11-05 08:52:00,
2013-11-05 04:12:00,22.0,19.0,30.69,North,0,0.0,0.0,89,0.00,,,0.00,,2013-11-05 09:12:00,
2013-11-05 04:22:00,22.0,19.0,30.69,North,0,0.0,0.0,89,0.00,,,0.00,,2013-11-05 09:22:00,
2013-11-05 04:43:00,22.0,19.0,30.68,North,0,0.0,0.0,89,0.00,,,0.00,,2013-11-05 09:43:00,
2013-11-05 04:53:00,22.0,19.0,30.68,North,0,0.0,0.0,89,0.00,,,0.00,,2013-11-05 09:53:00,
2013-11-05 05:13:00,22.0,19.0,30.68,North,0,0.0,0.0,89,0.00,,,0.00,,2013-11-05 10:13:00,
2013-11-05 05:23:00,22.0,19.0,30.68,North,0,0.0,0.0,89,0.00,,,0.00,,2013-11-05 10:23:00,
2013-11-05 05:43:00,22.0,19.0,30.69,North,0,0.0,0.0,89,0.00,,,0.00,,2013-11-05 10:43:00,
2013-11-05 05:53:00,22.0,19.0,30.69,North,0,0.0,0.0,89,0.00,,,0.00,,2013-11-05 10:53:00,
2013-11-05 06:13:00,22.0,19.0,30.70,North,0,0.0,0.0,89,0.00,,,0.00,,2013-11-05 11:13:00,
2013-11-05 06:22:00,22.0,19.0,30.70,North,0,0.0,0.0,89,0.00,,,0.00,,2013-11-05 11:22:00,
2013-11-05 06:42:00,23.0,20.0,30.69,North,0,0.0,0.0,89,0.00,,,0.00,,2013-11-05 11:42:00,
2013-11-05 06:52:00,23.0,21.0,30.69,North,0,0.0,0.0,90,0.00,,,0.00,,2013-11-05 11:52:00,
2013-11-05 07:02:00,23.0,21.0,30.69,North,0,0.0,0.0,90,0.00,,,0.00,,2013-11-05 12:02:00,
2013-11-05 07:22:00,23.0,21.0,30.70,North,0,0.0,0.0,90,0.00,,,0.00,,2013-11-05 12:22:00,
2013-11-05 07:42:00,24.0,22.0,30.71,North,0,0.0,0.0,90,0.00,,,0.00,,2013-11-05 12:42:00,
2013-11-05 07:52:00,24.0,22.0,30.71,North,0,0.0,0.0,90,0.00,,,0.00,,2013-11-05 12:52:00,
2013-11-05 08:11:00,25.0,22.0,30.71,North,0,0.0,0.0,89,0.00,,,0.00,,2013-11-05 13:11:00,
2013-11-05 08:22:00,26.0,23.0,30.71,North,0,0.0,0.0,89,0.00,,,0.00,,2013-11-05 13:22:00,
2013-11-05 08:32:00,26.0,23.0,30.71,North,0,0.0,0.0,89,0.00,,,0.00,,2013-11-05 13:32:00,
2013-11-05 08:42:00,26.0,23.0,30.71,North,0,0.0,0.0,89,0.00,,,0.00,,2013-11-05 13:42:00,
2013-11-05 08:52:00,26.0,23.0,30.71,North,0,0.0,0.0,89,0.00,,,0.00,,2013-11-05 13:52:00,
2013-11-05 09:12:00,34.0,27.0,30.70,North,0,0.0,0.0,76,0.00,,,0.00,,2013-11-05 14:12:00,
2013-11-05 09:22:00,35.0,28.0,30.70,West,274,0.0,1.0,74,0.00,,,0.00,,2013-11-05 14:22:00,
2013-11-05 09:42:00,38.0,28.0,30.69,West,274,0.0,1.0,66,0.00,,,0.00,,2013-11-05 14:42:00,
2013-11-05 09:52:00,38.0,28.0,30.69,West,274,0.0,1.0,66,0.00,,,0.00,,2013-11-05 14:52:00,
2013-11-05 10:11:00,40.0,26.0,30.68,West,274,0.0,2.0,58,0.00,,,0.00,,2013-11-05 15:11:00,
2013-11-05 10:22:00,42.0,27.0,30.68,West,274,1.0,3.0,55,0.00,,,0.00,,2013-11-05 15:22:00,
2013-11-05 10:33:00,42.0,27.0,30.68,West,274,1.0,3.0,55,0.00,,,0.00,,2013-11-05 15:33:00,
2013-11-05 10:53:00,44.0,28.0,30.67,South,170,2.0,5.0,53,0.00,,,0.00,,2013-11-05 15:53:00,
2013-11-05 11:13:00,45.0,27.0,30.66,WSW,253,2.0,6.0,49,0.00,,,0.00,,2013-11-05 16:13:00,
2013-11-05 11:23:00,45.0,27.0,30.66,WSW,253,2.0,6.0,49,0.00,,,0.00,,2013-11-05 16:23:00,
2013-11-05 11:43:00,46.0,28.0,30.65,SSW,192,3.0,8.0,49,0.00,,,0.00,,2013-11-05 16:43:00,
2013-11-05 11:53:00,46.0,27.0,30.65,South,170,2.0,7.0,48,0.00,,,0.00,,2013-11-05 16:53:00,
2013-11-05 12:12:00,48.0,28.0,30.65,SSW,194,1.0,6.0,46,0.00,,,0.00,,2013-11-05 17:12:00,
2013-11-05 12:22:00,48.0,28.0,30.65,SSW,194,1.0,6.0,46,0.00,,,0.00,,2013-11-05 17:22:00,
2013-11-05 12:42:00,48.0,29.0,30.63,SSW,198,1.0,4.0,48,0.00,,,0.00,,2013-11-05 17:42:00,
2013-11-05 12:52:00,49.0,30.0,30.62,SW,226,2.0,8.0,47,0.00,,,0.00,,2013-11-05 17:52:00,
2013-11-05 13:12:00,50.0,29.0,30.61,SW,230,3.0,7.0,45,0.00,,,0.00,,2013-11-05 18:12:00,
2013-11-05 13:22:00,50.0,30.0,30.61,SSW,207,3.0,8.0,46,0.00,,,0.00,,2013-11-05 18:22:00,
2013-11-05 13:33:00,50.0,30.0,30.61,SSW,207,3.0,8.0,46,0.00,,,0.00,,2013-11-05 18:33:00,
2013-11-05 13:52:00,50.0,30.0,30.61,SSW,207,3.0,8.0,46,0.00,,,0.00,,2013-11-05 18:52:00,
2013-11-05 14:11:00,51.0,30.0,30.59,WSW,244,2.0,6.0,44,0.00,,,0.00,,2013-11-05 19:11:00,
2013-11-05 14:22:00,49.0,29.0,30.58,SW,225,3.0,9.0,46,0.00,,,0.00,,2013-11-05 19:22:00,
2013-11-05 14:32:00,49.0,29.0,30.58,SW,225,3.0,9.0,46,0.00,,,0.00,,2013-11-05 19:32:00,
2013-11-05 14:42:00,49.0,29.0,30.58,SW,225,3.0,9.0,46,0.00,,,0.00,,2013-11-05 19:42:00,
2013-11-05 14:52:00,49.0,29.0,30.58,SW,225,3.0,9.0,46,0.00,,,0.00,,2013-11-05 19:52:00,
2013-11-05 15:22:00,50.0,31.0,30.56,SSE,163,1.0,7.0,47,0.00,,,0.00,,2013-11-05 20:22:00,
2013-11-05 15:43:00,49.0,30.0,30.56,SSW,208,1.0,5.0,47,0.00,,,0.00,,2013-11-05 20:43:00,
2013-11-05 15:52:00,49.0,30.0,30.56,WSW,253,1.0,5.0,48,0.00,,,0.00,,2013-11-05 20:52:00,
2013-11-05 16:12:00,48.0,30.0,30.55,SSE,150,0.0,3.0,50,0.00,,,0.00,,2013-11-05 21:12:00,
2013-11-05 16:22:00,47.0,30.0,30.55,SSE,159,0.0,3.0,51,0.00,,,0.00,,2013-11-05 21:22:00,
2013-11-05 16:44:00,46.0,31.0,30.55,SSE,162,0.0,1.0,55,0.00,,,0.00,,2013-11-05 21:44:00,
2013-11-05 16:54:00,45.0,31.0,30.54,North,0,0.0,0.0,58,0.00,,,0.00,,2013-11-05 21:54:00,
2013-11-05 17:23:00,41.0,31.0,30.54,North,0,0.0,0.0,66,0.00,,,0.00,,2013-11-05 22:23:00,
2013-11-05 17:34:00,41.0,31.0,30.54,North,0,0.0,0.0,66,0.00,,,0.00,,2013-11-05 22:34:00,
2013-11-05 17:43:00,41.0,31.0,30.54,North,0,0.0,0.0,66,0.00,,,0.00,,2013-11-05 22:43:00,
2013-11-05 17:53:00,41.0,31.0,30.54,North,0,0.0,0.0,66,0.00,,,0.00,,2013-11-05 22:53:00,
2013-11-05 18:12:00,36.0,29.0,30.54,North,0,0.0,0.0,76,0.00,,,0.00,,2013-11-05 23:12:00,
2013-11-05 18:22:00,36.0,29.0,30.54,North,0,0.0,0.0,76,0.00,,,0.00,,2013-11-05 23:22:00,
2013-11-05 18:42:00,36.0,30.0,30.55,North,0,0.0,0.0,78,0.00,,,0.00,,2013-11-05 23:42:00,
2013-11-05 18:54:00,36.0,30.0,30.55,North,0,0.0,0.0,78,0.00,,,0.00,,2013-11-05 23:54:00,
2013-11-05 19:12:00,36.0,30.0,30.55,North,0,0.0,0.0,78,0.00,,,0.00,,2013-11-06 00:12:00,
2013-11-05 19:22:00,36.0,30.0,30.54,SSE,150,0.0,2.0,78,0.00,,,0.00,,2013-11-06 00:22:00,
2013-11-05 19:42:00,35.0,29.0,30.55,North,0,0.0,0.0,80,0.00,,,0.00,,2013-11-06 00:42:00,
2013-11-05 19:52:00,34.0,28.0,30.55,North,0,0.0,0.0,80,0.00,,,0.00,,2013-11-06 00:52:00,
2013-11-05 20:11:00,34.0,29.0,30.54,North,0,0.0,0.0,81,0.00,,,0.00,,2013-11-06 01:11:00,
2013-11-05 20:22:00,34.0,29.0,30.54,North,0,0.0,0.0,81,0.00,,,0.00,,2013-11-06 01:22:00,
2013-11-05 20:42:00,33.0,28.0,30.53,North,0,0.0,0.0,83,0.00,,,0.00,,2013-11-06 01:42:00,
2013-11-05 20:52:00,33.0,29.0,30.53,SE,145,0.0,2.0,84,0.00,,,0.00,,2013-11-06 01:52:00,
2013-11-05 21:12:00,33.0,29.0,30.54,SE,146,0.0,2.0,84,0.00,,,0.00,,2013-11-06 02:12:00,
2013-11-05 21:23:00,32.0,28.0,30.53,North,0,0.0,0.0,84,0.00,,,0.00,,2013-11-06 02:23:00,
2013-11-05 21:42:00,32.0,28.0,30.53,SE,146,0.0,1.0,85,0.00,,,0.00,,2013-11-06 02:42:00,
2013-11-05 21:52:00,32.0,28.0,30.52,SE,146,0.0,1.0,85,0.00,,,0.00,,2013-11-06 02:52:00,
2013-11-05 22:12:00,32.0,28.0,30.52,SE,146,0.0,1.0,86,0.00,,,0.00,,2013-11-06 03:12:00,
2013-11-05 22:22:00,32.0,28.0,30.52,North,0,0.0,0.0,85,0.00,,,0.00,,2013-11-06 03:22:00,
2013-11-05 22:44:00,32.0,28.0,30.51,North,0,0.0,0.0,86,0.00,,,0.00,,2013-11-06 03:44:00,
2013-11-05 22:54:00,32.0,28.0,30.51,North,0,0.0,0.0,86,0.00,,,0.00,,2013-11-06 03:54:00,
2013-11-05 23:14:00,32.0,29.0,30.51,North,0,0.0,0.0,87,0.00,,,0.00,,2013-11-06 04:14:00,
2013-11-05 23:24:00,32.0,29.0,30.51,SE,146,0.0,1.0,87,0.00,,,0.00,,2013-11-06 04:24:00,
2013-11-05 23:43:00,33.0,30.0,30.50,North,0,0.0,0.0,87,0.00,,,0.00,,2013-11-06 04:43:00,
2013-11-05 23:53:00,33.0,30.0,30.50,North,0,0.0,0.0,87,0.00,,,0.00,,2013-11-06 04:53:00,